Hyundai Tacoma — V7DB9 — position and weather

sailwx.info

Track history (hours):
 
Tides and Currents Weather Stations Pressure Air Temp Water Temp Dewpoint Dewpoint Depression Visibility Wind Speed Wind Dir Waves Ship Positions

Hyundai Tacoma

Last reported at 2018-Feb-22 02:36 UTC. Time now 2018-Feb-26 02:01 UTC.
Position N 41°35' E 141°40'.

Length 293 m; draft 12.3 m.

Type: Cargo ship. MMSI: 538007259.

Date/timePositionNaut miles runAvg speedWind from/ knotsBaromVisibWave heightAir tempDewpointWater temp
2018-Feb-22 02:36N 41°35' E 141°40'321.2
2018-Feb-22 02:29N 41°35' E 141°36'1320.9
2018-Feb-22 01:50N 41°37' E 141°19'720.6
2018-Feb-22 01:30N 41°37' E 141°09'1121.7
2018-Feb-22 01:00N 41°37' E 140°55'1020.2
2018-Feb-22 00:30N 41°32' E 140°44'1121.8
2018-Feb-22 00:01N 41°26' E 140°32'1122.2
2018-Feb-21 23:30N 41°19' E 140°19'  
2018-Feb-18 08:16N 31°06' E 122°18'413.7
2018-Feb-18 07:58N 31°08' E 122°14'713.7
2018-Feb-18 07:29N 31°12' E 122°08'612.3
2018-Feb-18 07:00N 31°14' E 122°02'612.0
2018-Feb-18 06:31N 31°16' E 121°55'510.3
2018-Feb-18 06:00N 31°17' E 121°49'7 0.3
2018-Feb-17 04:56N 31°20' E 121°41'4 9.7
2018-Feb-17 04:30N 31°18' E 121°46'710.1
2018-Feb-17 03:51N 31°16' E 121°53'410.2
2018-Feb-17 03:29N 31°15' E 121°57'511.3
2018-Feb-17 03:00N 31°14' E 122°03'612.7
2018-Feb-17 02:30N 31°11' E 122°10'612.3
2018-Feb-17 02:00N 31°08' E 122°16'610.7
2018-Feb-17 01:28N 31°07' E 122°22'4 9.1
2018-Feb-17 01:00N 31°07' E 122°27'7 8.6
2018-Feb-17 00:15N 31°07' E 122°35'15 0.5
2018-Feb-15 15:36N 31°04' E 122°52'0 0.5
2018-Feb-15 15:30N 31°04' E 122°52'0 0.0
2018-Feb-15 13:57N 31°04' E 122°52'0 0.0
2018-Feb-15 13:30N 31°04' E 122°52'0 0.0
2018-Feb-15 13:00N 31°04' E 122°52'0 0.1
2018-Feb-15 12:24N 31°04' E 122°52'0 0.1
2018-Feb-15 12:00N 31°04' E 122°52'0 0.0
2018-Feb-15 11:30N 31°04' E 122°52'0 0.0
2018-Feb-15 06:42N 31°04' E 122°52'0 0.1
2018-Feb-15 04:00N 31°04' E 122°52'0 0.0
2018-Feb-15 03:30N 31°04' E 122°52'0 0.0
2018-Feb-14 23:33N 31°04' E 122°52'0 0.0
2018-Feb-14 23:18N 31°04' E 122°52'0 0.0
2018-Feb-14 23:00N 31°04' E 122°52'0 0.1
2018-Feb-14 22:30N 31°04' E 122°52'0 0.0
2018-Feb-14 21:54N 31°04' E 122°52'0 0.1
2018-Feb-14 21:27N 31°04' E 122°52'0 0.1
2018-Feb-14 21:00N 31°04' E 122°52'0 0.0
2018-Feb-14 20:30N 31°04' E 122°52'0 0.0
2018-Feb-14 20:00N 31°04' E 122°52'0 0.0
2018-Feb-14 19:27N 31°04' E 122°52'0 0.1
2018-Feb-14 19:00N 31°04' E 122°52'0 0.0
2018-Feb-14 18:30N 31°04' E 122°52'0 0.0
2018-Feb-14 18:00N 31°04' E 122°52'0 0.0
2018-Feb-14 17:30N 31°04' E 122°52'0 0.2
2018-Feb-14 17:00N 31°04' E 122°52'0 0.3
2018-Feb-14 16:30N 31°04' E 122°52'0 0.2
2018-Feb-14 16:00N 31°04' E 122°52'0 0.1
2018-Feb-14 15:30N 31°04' E 122°52'0 0.1
2018-Feb-14 15:00N 31°04' E 122°52'0 0.1
2018-Feb-14 14:30N 31°04' E 122°52'0 0.0
2018-Feb-14 13:48N 31°04' E 122°52'0 0.1
2018-Feb-14 09:33N 31°04' E 122°52'0 1.1
2018-Feb-14 09:30N 31°04' E 122°52'0 0.3
2018-Feb-14 09:00N 31°04' E 122°52'1 1.4
2018-Feb-14 08:21N 31°03' E 122°53'  
Track history (hours):
 
Tides and Currents Weather Stations Pressure Air Temp Water Temp Dewpoint Dewpoint Depression Visibility Wind Speed Wind Dir Waves Ship Positions

Hyundai Tacoma

Last reported at 2018-Feb-22 02:36 UTC. Time now 2018-Feb-26 02:01 UTC.
Position N 41°35' E 141°40'.

Length 293 m; draft 12.3 m.

Type: Cargo ship. MMSI: 538007259.

Date/timePositionNaut miles runAvg speedWind from/ knotsBaromVisibWave heightAir tempDewpointWater temp
2018-Feb-22 02:36N 41°35' E 141°40'321.2
2018-Feb-22 02:29N 41°35' E 141°36'1320.9
2018-Feb-22 01:50N 41°37' E 141°19'720.6
2018-Feb-22 01:30N 41°37' E 141°09'1121.7
2018-Feb-22 01:00N 41°37' E 140°55'1020.2
2018-Feb-22 00:30N 41°32' E 140°44'1121.8
2018-Feb-22 00:01N 41°26' E 140°32'1122.2
2018-Feb-21 23:30N 41°19' E 140°19'  
2018-Feb-18 08:16N 31°06' E 122°18'413.7
2018-Feb-18 07:58N 31°08' E 122°14'713.7
2018-Feb-18 07:29N 31°12' E 122°08'612.3
2018-Feb-18 07:00N 31°14' E 122°02'612.0
2018-Feb-18 06:31N 31°16' E 121°55'510.3
2018-Feb-18 06:00N 31°17' E 121°49'7 0.3
2018-Feb-17 04:56N 31°20' E 121°41'4 9.7
2018-Feb-17 04:30N 31°18' E 121°46'710.1
2018-Feb-17 03:51N 31°16' E 121°53'410.2
2018-Feb-17 03:29N 31°15' E 121°57'511.3
2018-Feb-17 03:00N 31°14' E 122°03'612.7
2018-Feb-17 02:30N 31°11' E 122°10'612.3
2018-Feb-17 02:00N 31°08' E 122°16'610.7
2018-Feb-17 01:28N 31°07' E 122°22'4 9.1
2018-Feb-17 01:00N 31°07' E 122°27'7 8.6
2018-Feb-17 00:15N 31°07' E 122°35'15 0.5
2018-Feb-15 15:36N 31°04' E 122°52'0 0.5
2018-Feb-15 15:30N 31°04' E 122°52'0 0.0
2018-Feb-15 13:57N 31°04' E 122°52'0 0.0
2018-Feb-15 13:30N 31°04' E 122°52'0 0.0
2018-Feb-15 13:00N 31°04' E 122°52'0 0.1
2018-Feb-15 12:24N 31°04' E 122°52'0 0.1
2018-Feb-15 12:00N 31°04' E 122°52'0 0.0
2018-Feb-15 11:30N 31°04' E 122°52'0 0.0
2018-Feb-15 06:42N 31°04' E 122°52'0 0.1
2018-Feb-15 04:00N 31°04' E 122°52'0 0.0
2018-Feb-15 03:30N 31°04' E 122°52'0 0.0
2018-Feb-14 23:33N 31°04' E 122°52'0 0.0
2018-Feb-14 23:18N 31°04' E 122°52'0 0.0
2018-Feb-14 23:00N 31°04' E 122°52'0 0.1
2018-Feb-14 22:30N 31°04' E 122°52'0 0.0
2018-Feb-14 21:54N 31°04' E 122°52'0 0.1
2018-Feb-14 21:27N 31°04' E 122°52'0 0.1
2018-Feb-14 21:00N 31°04' E 122°52'0 0.0
2018-Feb-14 20:30N 31°04' E 122°52'0 0.0
2018-Feb-14 20:00N 31°04' E 122°52'0 0.0
2018-Feb-14 19:27N 31°04' E 122°52'0 0.1
2018-Feb-14 19:00N 31°04' E 122°52'0 0.0
2018-Feb-14 18:30N 31°04' E 122°52'0 0.0
2018-Feb-14 18:00N 31°04' E 122°52'0 0.0
2018-Feb-14 17:30N 31°04' E 122°52'0 0.2
2018-Feb-14 17:00N 31°04' E 122°52'0 0.3
2018-Feb-14 16:30N 31°04' E 122°52'0 0.2
2018-Feb-14 16:00N 31°04' E 122°52'0 0.1
2018-Feb-14 15:30N 31°04' E 122°52'0 0.1
2018-Feb-14 15:00N 31°04' E 122°52'0 0.1
2018-Feb-14 14:30N 31°04' E 122°52'0 0.0
2018-Feb-14 13:48N 31°04' E 122°52'0 0.1
2018-Feb-14 09:33N 31°04' E 122°52'0 1.1
2018-Feb-14 09:30N 31°04' E 122°52'0 0.3
2018-Feb-14 09:00N 31°04' E 122°52'1 1.4
2018-Feb-14 08:21N 31°03' E 122°53'  

Dump ship's entire track history